Time,TemperatureF,DewpointF,PressureIn,WindDirection,WindDirectionDegrees,WindSpeedMPH,WindSpeedGustMPH,Humidity,HourlyPrecipIn,Conditions,Clouds,dailyrainin,SoftwareType,DateUTC
2013-05-20 00:00:00,32.0,32.0,-100.00,WNW,283,3.0,6.0,99,0.00,,,-99.99,,2013-05-20 07:00:00,
2013-05-20 01:00:00,33.0,31.0,-100.00,WNW,284,3.0,8.0,91,0.00,,,-99.99,,2013-05-20 08:00:00,
2013-05-20 02:00:00,35.0,31.0,-100.00,West,266,3.0,8.0,85,0.00,,,-99.99,,2013-05-20 09:00:00,
2013-05-20 03:00:00,36.0,31.0,-100.00,WSW,253,3.0,8.0,81,0.00,,,-99.99,,2013-05-20 10:00:00,
2013-05-20 04:00:00,37.0,32.0,-100.00,WSW,243,5.0,8.0,83,0.00,,,-99.99,,2013-05-20 11:00:00,
2013-05-20 05:00:00,38.0,32.0,-100.00,SSW,208,5.0,7.0,79,0.00,,,-99.99,,2013-05-20 12:00:00,
2013-05-20 08:00:00,43.0,34.0,-100.00,SE,141,5.0,7.0,71,0.00,,,-99.99,,2013-05-20 15:00:00,
2013-05-20 09:00:00,48.0,32.0,-100.00,SE,142,5.0,7.0,53,0.00,,,-99.99,,2013-05-20 16:00:00,
2013-05-20 10:00:00,50.0,32.0,-100.00,South,186,3.0,7.0,50,0.00,,,-99.99,,2013-05-20 17:00:00,
2013-05-20 11:00:00,52.0,32.0,-100.00,South,171,2.0,5.0,46,0.00,,,-99.99,,2013-05-20 18:00:00,
2013-05-20 12:00:00,55.0,31.0,-100.00,North,0,0.0,3.0,39,0.00,,,-99.99,,2013-05-20 19:00:00,
2013-05-20 14:00:00,55.0,28.0,-100.00,North,0,0.0,3.0,35,0.00,,,-99.99,,2013-05-20 21:00:00,
2013-05-20 15:00:00,56.0,27.0,-100.00,North,0,0.0,2.0,33,0.00,,,-99.99,,2013-05-20 22:00:00,
2013-05-20 16:00:00,55.0,27.0,-100.00,North,0,0.0,2.0,34,0.00,,,-99.99,,2013-05-20 23:00:00,
2013-05-20 18:00:00,55.0,36.0,-100.00,North,0,0.0,2.0,48,0.00,,,-99.99,,2013-05-21 01:00:00,
2013-05-20 19:00:00,50.0,38.0,-100.00,North,0,0.0,1.0,63,0.00,,,-99.99,,2013-05-21 02:00:00,
2013-05-20 20:00:00,46.0,38.0,-100.00,North,0,0.0,2.0,74,0.00,,,-99.99,,2013-05-21 03:00:00,
2013-05-20 21:00:00,44.0,38.0,-100.00,North,0,0.0,2.0,78,0.00,,,-99.99,,2013-05-21 04:00:00,
2013-05-20 21:53:00,44.0,38.0,-100.00,North,0,0.0,2.0,78,0.00,,,-99.99,,2013-05-21 04:53:00,
2013-05-20 22:00:00,43.0,38.0,-100.00,WSW,240,1.0,6.0,82,0.00,,,-99.99,,2013-05-21 05:00:00,
2013-05-20 22:52:00,43.0,38.0,-100.00,WSW,240,1.0,6.0,82,0.00,,,-99.99,,2013-05-21 05:52:00,
2013-05-20 23:00:00,44.0,31.0,-100.00,SW,230,2.0,5.0,61,0.00,,,-99.99,,2013-05-21 06:00:00,
2013-05-20 23:52:00,44.0,31.0,-100.00,SW,230,2.0,5.0,61,0.00,,,-99.99,,2013-05-21 06:52:00,